Time;durP1;ratioP1;P1;durP2;ratioP2;P2;SDS_P1;SDS_P2;PMS_P1;PMS_P2;Temp;Humidity;BMP_temperature;BMP_pressure;BME280_temperature;BME280_humidity;BME280_pressure;Samples;Min_cycle;Max_cycle;Signal;HPM_P1;HPM_P2
2023/01/05 14:42:10;;;;;;;0.30;0.30;;;12.70;99.90;13.60;101784.00;;;;6161099;22;1461872;-67
2023/01/05 14:45:00;;;;;;;0.20;0.20;;;12.80;99.90;14.20;101769.00;;;;6215158;23;20592;-67
2023/01/05 14:47:44;;;;;;;0.30;0.30;;;12.80;99.90;13.30;101764.00;;;;6188643;23;20170;-67
2023/01/05 14:50:29;;;;;;;0.33;0.33;;;12.70;99.90;14.00;101781.00;;;;6189027;23;20152;-67
2023/01/05 14:53:39;;;;;;;1.17;1.17;;;12.80;99.90;14.10;101788.00;;;;6215599;23;20163;-68
2023/01/05 14:56:08;;;;;;;0.20;0.20;;;12.90;99.90;13.90;101774.00;;;;6188436;23;20151;-68
2023/01/05 14:58:40;;;;;;;2.73;2.57;;;12.90;99.90;13.80;101724.00;;;;6215258;23;20145;-68
2023/01/05 15:01:18;;;;;;;0.30;0.30;;;13.00;99.90;14.50;101776.00;;;;6215294;23;20169;-68
2023/01/05 15:04:21;;;;;;;6.80;1.83;;;13.10;99.90;13.70;101776.00;;;;6215198;23;20146;-67
2023/01/05 15:07:17;;;;;;;3.10;0.77;;;13.00;99.90;13.60;101775.00;;;;6188544;23;20237;-68
2023/01/05 15:10:40;;;;;;;0.87;0.60;;;13.00;99.90;13.50;101781.00;;;;6214467;23;20618;-67
2023/01/05 15:13:33;;;;;;;11.83;1.33;;;12.80;99.90;12.80;101797.00;;;;6188721;23;20182;-69
2023/01/05 15:16:24;;;;;;;0.37;0.37;;;12.50;99.90;13.30;101799.00;;;;6215388;23;20162;-69
2023/01/05 15:19:13;;;;;;;0.30;0.30;;;12.50;99.90;13.20;101811.00;;;;6189836;23;20224;-68
2023/01/05 15:22:08;;;;;;;0.63;0.63;;;12.50;99.90;13.30;101797.00;;;;6217092;23;20268;-67
2023/01/05 15:24:43;;;;;;;0.20;0.20;;;12.50;99.90;13.50;101796.00;;;;6190743;23;20139;-69
2023/01/05 15:27:51;;;;;;;0.20;0.20;;;12.60;99.90;14.20;101791.00;;;;6217462;23;20229;-69
2023/01/05 15:31:22;;;;;;;0.33;0.33;;;12.80;99.90;13.90;101780.00;;;;6165901;23;20190;-65
2023/01/05 15:34:17;;;;;;;0.60;0.60;;;12.80;99.90;13.50;101776.00;;;;6118623;23;20164;-68
2023/01/05 15:37:18;;;;;;;0.23;0.23;;;12.90;99.90;13.90;101738.00;;;;6066572;23;20488;-70
2023/01/05 15:39:59;;;;;;;0.20;0.20;;;12.80;99.90;14.30;101778.00;;;;6124203;23;20160;-70
2023/01/05 15:42:38;;;;;;;0.20;0.20;;;12.90;99.90;14.10;101764.00;;;;6100522;23;20196;-67
2023/01/05 15:45:42;;;;;;;0.30;0.30;;;12.90;99.90;13.60;101763.00;;;;6165706;23;20234;-70
2023/01/05 15:48:31;;;;;;;0.50;0.50;;;12.90;99.90;13.40;101776.00;;;;6215770;23;20169;-69
2023/01/05 15:50:58;;;;;;;0.30;0.30;;;12.70;99.90;14.20;101766.00;;;;6190420;23;20151;-70
2023/01/05 15:53:35;;;;;;;1.90;1.90;;;12.90;99.90;14.40;101759.00;;;;6190044;23;20237;-69
2023/01/05 15:56:30;;;;;;;0.30;0.30;;;13.10;99.90;14.50;101754.00;;;;6190946;23;20441;-70
2023/01/05 15:59:34;;;;;;;0.30;0.30;;;13.20;99.90;14.30;101755.00;;;;6190385;23;20460;-69
2023/01/05 16:02:26;;;;;;;0.57;0.57;;;13.20;99.90;14.00;101743.00;;;;6190695;23;20207;-67
2023/01/05 16:05:17;;;;;;;0.30;0.30;;;13.10;99.90;14.00;101754.00;;;;6215556;23;20189;-68
2023/01/05 16:08:21;;;;;;;0.40;0.40;;;13.00;99.90;13.70;101739.00;;;;6203831;23;20170;-67
2023/01/05 16:11:13;;;;;;;2.97;1.30;;;12.90;99.90;13.70;101746.00;;;;6075904;23;20172;-68
2023/01/05 16:14:03;;;;;;;0.60;0.60;;;13.00;99.90;13.30;101750.00;;;;6076006;23;20167;-68
2023/01/05 16:16:31;;;;;;;0.73;0.73;;;12.80;99.90;14.00;101740.00;;;;6153521;23;20164;-69
2023/01/05 16:19:12;;;;;;;0.60;0.60;;;12.90;99.90;14.20;101741.00;;;;6216785;23;20223;-69
2023/01/05 16:21:45;;;;;;;0.37;0.37;;;13.00;99.90;14.30;101746.00;;;;6189502;23;20178;-69
2023/01/05 16:24:25;;;;;;;0.20;0.20;;;13.00;99.90;14.40;101747.00;;;;6165485;23;20157;-68
2023/01/05 16:26:54;;;;;;;0.50;0.50;;;13.20;99.90;14.10;101738.00;;;;6189619;23;20173;-69
2023/01/05 16:29:44;;;;;;;0.27;0.27;;;13.10;99.90;13.70;101682.00;;;;6190087;23;20172;-69
2023/01/05 16:32:36;;;;;;;0.30;0.30;;;13.00;99.90;14.70;101744.00;;;;6191068;23;20145;-69
2023/01/05 16:35:43;;;;;;;0.43;0.43;;;13.20;99.90;14.10;101736.00;;;;6190307;23;20150;-69
2023/01/05 16:38:08;;;;;;;0.67;0.67;;;13.20;99.90;13.80;101732.00;;;;6189852;23;20157;-69
2023/01/05 16:41:01;;;;;;;1.50;1.33;;;13.10;99.90;13.00;101696.00;;;;6216017;23;20165;-69
2023/01/05 16:43:33;;;;;;;0.43;0.43;;;12.80;99.90;13.60;101751.00;;;;6216459;23;20659;-69
2023/01/05 16:46:24;;;;;;;1.47;1.37;;;12.70;99.90;13.10;101707.00;;;;6216853;23;20180;-69
2023/01/05 16:49:44;;;;;;;1.47;1.33;;;12.60;99.90;13.50;101757.00;;;;6216593;23;20164;-69
2023/01/05 16:52:20;;;;;;;0.30;0.30;;;12.60;99.90;13.00;101758.00;;;;6210150;23;20610;-69
2023/01/05 16:55:12;;;;;;;0.40;0.40;;;12.50;99.90;13.50;101758.00;;;;6189845;23;20145;-69
2023/01/05 16:57:42;;;;;;;0.40;0.40;;;12.60;99.90;12.90;101765.00;;;;6164773;23;20191;-69
2023/01/05 17:00:30;;;;;;;0.60;0.60;;;12.40;99.90;13.90;101747.00;;;;6215297;23;20141;-69
2023/01/05 17:03:01;;;;;;;0.30;0.30;;;12.60;99.90;13.90;101754.00;;;;6189320;23;20279;-69
2023/01/05 17:05:34;;;;;;;0.43;0.43;;;12.80;99.90;13.80;101753.00;;;;6214142;23;20235;-68
2023/01/05 17:08:19;;;;;;;1.13;1.13;;;12.60;99.90;13.70;101749.00;;;;6190467;23;20134;-69
2023/01/05 17:10:59;;;;;;;0.43;0.43;;;12.60;99.90;13.50;101755.00;;;;6163822;23;20161;-69
2023/01/05 17:13:39;;;;;;;0.30;0.30;;;12.50;99.90;14.00;101745.00;;;;6190066;23;20182;-69
2023/01/05 17:16:25;;;;;;;0.77;0.77;;;12.60;99.90;13.30;101744.00;;;;6189444;23;20166;-68
2023/01/05 17:18:54;;;;;;;0.20;0.20;;;12.50;99.90;13.30;101750.00;;;;6189750;23;20233;-69
2023/01/05 17:21:26;;;;;;;0.47;0.47;;;12.40;99.90;13.60;101750.00;;;;6189102;23;20188;-69
2023/01/05 17:23:59;;;;;;;0.20;0.20;;;12.50;99.90;13.90;101697.00;;;;6189931;23;20577;-69
2023/01/05 17:26:37;;;;;;;1.30;1.30;;;12.60;99.90;13.30;101739.00;;;;6189762;23;20240;-68
2023/01/05 17:29:06;;;;;;;0.30;0.30;;;12.60;99.90;13.90;101743.00;;;;6189599;23;20238;-69
2023/01/05 17:32:00;;;;;;;0.97;0.97;;;12.60;99.90;14.30;101734.00;;;;6188645;23;20166;-69
2023/01/05 17:34:50;;;;;;;0.37;0.37;;;12.80;99.90;14.40;101687.00;;;;6214123;23;20168;-69
2023/01/05 17:37:26;;;;;;;0.50;0.50;;;13.00;99.90;13.10;101746.00;;;;6214664;23;20232;-69
2023/01/05 17:40:22;;;;;;;0.30;0.30;;;12.50;99.90;13.50;101739.00;;;;6214280;23;20159;-69
2023/01/05 17:42:53;;;;;;;0.20;0.20;;;12.50;99.90;14.20;101741.00;;;;6215557;23;20180;-69
2023/01/05 17:45:47;;;;;;;0.30;0.30;;;12.60;99.90;13.70;101737.00;;;;6163914;23;20159;-69
2023/01/05 17:48:25;;;;;;;0.63;0.63;;;12.70;99.90;13.50;101727.00;;;;6178423;23;20314;-69
2023/01/05 17:51:16;;;;;;;0.40;0.40;;;12.60;99.90;13.60;101731.00;;;;6214091;23;20142;-69
2023/01/05 17:53:45;;;;;;;0.70;0.70;;;12.50;99.90;13.30;101741.00;;;;6189388;23;20319;-69
2023/01/05 17:56:14;;;;;;;1.27;1.17;;;12.40;99.90;13.70;101736.00;;;;6189379;23;20151;-68
2023/01/05 17:58:45;;;;;;;0.20;0.20;;;12.50;99.90;13.70;101726.00;;;;6215510;23;20204;-69
2023/01/05 18:01:34;;;;;;;2.20;2.00;;;12.60;99.90;13.20;101722.00;;;;6214438;23;20140;-68
2023/01/05 18:04:10;;;;;;;0.40;0.40;;;12.50;99.90;13.70;101713.00;;;;6189713;23;20539;-69
2023/01/05 18:06:35;;;;;;;0.50;0.50;;;12.60;99.90;14.00;101727.00;;;;6214320;23;20146;-69
2023/01/05 18:09:01;;;;;;;0.40;0.40;;;12.70;99.90;13.40;101682.00;;;;6189335;23;20149;-68
2023/01/05 18:11:27;;;;;;;1.93;1.80;;;12.60;99.90;12.50;101701.00;;;;6188742;23;20158;-68
2023/01/05 18:13:53;;;;;;;2.03;1.87;;;12.30;99.90;12.50;101704.00;;;;6215472;23;20152;-69
2023/01/05 18:16:19;;;;;;;2.00;1.80;;;12.10;99.90;12.70;101758.00;;;;6189083;23;20150;-69
2023/01/05 18:18:48;;;;;;;1.17;1.13;;;12.10;99.90;12.60;101748.00;;;;6215613;23;20228;-69
2023/01/05 18:21:14;;;;;;;1.33;1.23;;;12.00;99.90;12.30;101755.00;;;;6215152;23;20215;-68
2023/01/05 18:23:42;;;;;;;1.03;1.00;;;12.00;99.90;12.50;101753.00;;;;6215309;23;20173;-68
2023/01/05 18:26:09;;;;;;;1.40;1.23;;;12.00;99.90;12.30;101751.00;;;;6213352;23;20145;-68
2023/01/05 18:28:37;;;;;;;1.90;1.57;;;12.00;99.90;12.70;101753.00;;;;6188988;23;20157;-69
2023/01/05 18:31:21;;;;;;;1.57;1.47;;;12.00;99.90;12.50;101756.00;;;;6189192;23;20143;-68
2023/01/05 18:33:47;;;;;;;0.70;0.70;;;12.10;99.90;12.70;101747.00;;;;6188820;23;20148;-69
2023/01/05 18:36:14;;;;;;;3.43;1.53;;;12.10;99.90;12.20;101740.00;;;;6164392;23;20510;-69
2023/01/05 18:39:01;;;;;;;2.10;1.90;;;11.90;99.90;12.50;101735.00;;;;6189002;23;20152;-69
2023/01/05 18:41:29;;;;;;;0.95;0.95;;;12.00;99.90;12.50;101743.00;;;;6215188;23;20173;-69
2023/01/05 18:43:55;;;;;;;1.23;1.13;;;11.90;99.90;12.70;101740.00;;;;6163996;23;20481;-69
2023/01/05 18:46:21;;;;;;;1.70;1.50;;;12.00;99.90;13.40;101728.00;;;;6188634;23;20152;-69
2023/01/05 18:49:14;;;;;;;1.50;1.17;;;12.20;99.90;12.50;101677.00;;;;6185949;23;20153;-68
2023/01/05 18:52:03;;;;;;;0.63;0.63;;;12.10;99.90;12.80;101723.00;;;;6213911;23;20137;-69
2023/01/05 18:54:54;;;;;;;0.20;0.20;;;12.10;99.90;12.90;101724.00;;;;6190533;23;20156;-69
2023/01/05 18:57:40;;;;;;;2.20;1.57;;;12.00;99.90;12.70;101717.00;;;;6190782;23;20170;-69
2023/01/05 19:00:45;;;;;;;0.60;0.60;;;12.00;99.90;12.70;101684.00;;;;6191482;23;20470;-69
2023/01/05 19:03:44;;;;;;;4.00;2.60;;;12.00;99.90;12.40;101723.00;;;;6215642;23;20184;-69
2023/01/05 19:06:32;;;;;;;0.67;0.67;;;11.90;99.90;12.50;101720.00;;;;6215550;23;20572;-68
2023/01/05 19:09:12;;;;;;;0.67;0.67;;;11.90;99.90;13.00;101687.00;;;;6216937;23;20156;-69
2023/01/05 19:12:42;;;;;;;1.10;1.00;;;12.00;99.90;12.40;101725.00;;;;6190846;23;20152;-69
2023/01/05 19:19:08;;;;;;;4.40;3.20;;;11.80;99.90;12.40;101733.00;;;;6215750;23;20159;-69
2023/01/05 19:22:11;;;;;;;2.23;0.80;;;11.90;99.90;12.50;101745.00;;;;6215648;23;20159;-69
2023/01/05 19:25:28;;;;;;;1.43;1.37;;;11.90;99.90;12.20;101739.00;;;;6217074;23;20150;-69
2023/01/05 19:28:01;;;;;;;0.77;0.77;;;11.80;99.90;12.80;101725.00;;;;6190371;23;20158;-69
2023/01/05 19:30:39;;;;;;;1.70;1.10;;;12.00;99.90;12.40;101675.00;;;;6214964;23;20157;-69
2023/01/05 19:33:43;;;;;;;0.50;0.50;;;11.90;99.90;12.60;101722.00;;;;6166880;23;20209;-69
2023/01/05 19:36:16;;;;;;;0.50;0.50;;;12.00;99.90;12.80;101691.00;;;;6192990;23;20622;-69
2023/01/05 19:39:07;;;;;;;0.57;0.37;;;12.10;99.90;12.80;101705.00;;;;6190151;23;20170;-69
2023/01/05 19:42:01;;;;;;;0.30;0.30;;;12.10;99.90;13.50;101699.00;;;;6163956;23;20522;-69
2023/01/05 19:44:52;;;;;;;0.63;0.63;;;12.30;99.90;12.60;101688.00;;;;6215294;23;20599;-69
2023/01/05 19:47:39;;;;;;;0.30;0.30;;;12.20;99.90;13.10;101678.00;;;;6216243;23;20169;-69
2023/01/05 19:53:33;;;;;;;0.50;0.50;;;12.30;99.90;13.60;101669.00;;;;6215813;23;20163;-69
2023/01/05 19:56:20;;;;;;;0.50;0.50;;;12.40;99.90;13.40;101656.00;;;;6189807;23;20137;-70
2023/01/05 19:58:53;;;;;;;0.40;0.40;;;12.40;99.90;14.20;101657.00;;;;6190062;23;20146;-69
2023/01/05 20:01:23;;;;;;;0.93;0.50;;;12.60;99.90;13.40;101658.00;;;;6190269;23;20149;-69
2023/01/05 20:03:56;;;;;;;0.30;0.30;;;12.60;99.90;13.50;101654.00;;;;6189695;23;20201;-69
2023/01/05 20:06:26;;;;;;;0.30;0.30;;;12.50;99.90;13.60;101662.00;;;;6190581;23;20197;-69
2023/01/05 20:08:58;;;;;;;0.40;0.40;;;12.50;99.90;14.20;101649.00;;;;6190233;23;20148;-69
2023/01/05 20:11:35;;;;;;;1.67;1.57;;;12.80;99.90;13.50;101648.00;;;;6190469;23;20285;-69
2023/01/05 20:14:06;;;;;;;5.70;1.65;;;12.70;99.90;12.90;101641.00;;;;6188927;23;20389;-68
2023/01/05 20:16:33;;;;;;;0.40;0.40;;;12.40;99.90;12.70;101653.00;;;;6190740;23;20186;-69
2023/01/05 20:18:59;;;;;;;0.47;0.40;;;12.20;99.90;12.60;101659.00;;;;6189227;23;20965;-69
2023/01/05 20:21:26;;;;;;;1.93;1.60;;;12.10;99.90;12.90;101661.00;;;;6190290;23;20154;-69
2023/01/05 20:23:52;;;;;;;0.53;0.50;;;12.20;99.90;12.30;101669.00;;;;6165179;23;20158;-68
2023/01/05 20:26:23;;;;;;;4.03;1.13;;;12.00;99.90;12.90;101620.00;;;;6189954;23;20216;-69
2023/01/05 20:28:50;;;;;;;0.30;0.30;;;12.10;99.90;13.50;101652.00;;;;6189604;23;20160;-69
2023/01/05 20:31:24;;;;;;;0.20;0.20;;;12.40;99.90;13.30;101654.00;;;;6189938;23;20480;-69
2023/01/05 20:33:55;;;;;;;1.70;0.50;;;12.30;99.90;13.50;101649.00;;;;6165409;23;20182;-69
2023/01/05 20:37:27;;;;;;;0.30;0.30;;;12.40;99.90;13.50;101644.00;;;;6165368;23;20156;-69
2023/01/05 20:40:00;;;;;;;0.30;0.30;;;12.40;99.90;14.00;101629.00;;;;6165033;23;20168;-69
2023/01/05 20:42:29;;;;;;;0.30;0.30;;;12.60;99.90;13.80;101602.00;;;;6188302;23;20199;-69
2023/01/05 20:45:03;;;;;;;0.60;0.60;;;12.60;99.90;13.70;101632.00;;;;6189605;23;20152;-69
2023/01/05 20:48:04;;;;;;;0.50;0.50;;;12.60;99.90;13.50;101630.00;;;;6165377;23;20184;-69
2023/01/05 20:50:30;;;;;;;0.30;0.30;;;12.50;99.90;13.90;101627.00;;;;6189708;23;20161;-69
2023/01/05 20:52:56;;;;;;;0.40;0.40;;;12.60;99.90;14.10;101622.00;;;;6190230;23;20176;-69
2023/01/05 20:55:22;;;;;;;0.40;0.40;;;12.70;99.90;13.60;101601.00;;;;6189567;23;20140;-68
2023/01/05 20:57:48;;;;;;;0.50;0.50;;;12.70;99.90;13.20;101624.00;;;;6189651;23;20151;-69
2023/01/05 21:00:17;;;;;;;0.30;0.30;;;12.50;99.90;13.50;101632.00;;;;6190040;23;20147;-69
2023/01/05 21:02:44;;;;;;;0.30;0.30;;;12.40;99.90;13.50;101608.00;;;;6216759;23;20264;-69
2023/01/05 21:05:10;;;;;;;0.50;0.50;;;12.40;99.90;13.20;101614.00;;;;6216432;23;20149;-69
2023/01/05 21:07:36;;;;;;;0.30;0.30;;;12.50;99.90;13.20;101564.00;;;;6216454;23;20217;-69
2023/01/05 21:10:03;;;;;;;0.30;0.30;;;12.50;99.90;12.90;101605.00;;;;6164230;23;20189;-69
2023/01/05 21:12:29;;;;;;;0.30;0.30;;;12.30;99.90;13.30;101621.00;;;;6189747;23;20188;-69
2023/01/05 21:14:58;;;;;;;0.30;0.30;;;12.30;99.90;13.30;101578.00;;;;6189237;23;20143;-68
2023/01/05 21:17:24;;;;;;;0.53;0.53;;;12.30;99.90;13.70;101627.00;;;;6164577;23;20193;-69
2023/01/05 21:19:49;;;;;;;0.30;0.30;;;12.50;99.90;13.60;101629.00;;;;6189349;23;20180;-69
2023/01/05 21:22:16;;;;;;;0.30;0.30;;;12.50;99.90;14.10;101626.00;;;;6164378;23;20619;-69
2023/01/05 21:24:44;;;;;;;0.40;0.40;;;12.70;99.90;14.10;101613.00;;;;6189550;23;20148;-69
2023/01/05 21:27:10;;;;;;;0.40;0.40;;;12.70;99.90;14.30;101622.00;;;;6189541;23;20564;-69
2023/01/05 21:29:36;;;;;;;0.50;0.50;;;12.90;99.90;14.20;101616.00;;;;6188954;23;20221;-69
2023/01/05 21:32:02;;;;;;;0.40;0.40;;;12.90;99.90;14.50;101601.00;;;;6189310;23;20601;-68
2023/01/05 21:34:29;;;;;;;0.33;0.33;;;13.00;99.90;13.30;101621.00;;;;6216027;23;20244;-68
2023/01/05 21:37:06;;;;;;;0.40;0.40;;;12.70;99.90;13.40;101630.00;;;;6164428;23;20632;-69
2023/01/05 21:39:40;;;;;;;1.30;1.20;;;12.60;99.90;13.10;101613.00;;;;6166227;23;20176;-69
2023/01/05 21:44:50;;;;;;;0.30;0.30;;;12.80;99.90;13.50;101615.00;;;;6192939;23;20165;-69
2023/01/05 21:47:16;;;;;;;0.50;0.50;;;12.70;99.90;13.40;101607.00;;;;6188782;23;20156;-69
2023/01/05 21:49:44;;;;;;;0.30;0.30;;;12.70;99.90;13.50;101605.00;;;;6189364;23;20190;-69
2023/01/05 21:56:24;;;;;;;0.30;0.30;;;12.30;99.90;13.70;101600.00;;;;6215526;23;20149;-69
2023/01/05 21:57:55;;;;;;;0.40;0.40;;;12.50;99.90;13.00;101588.00;;;;6215300;23;20170;-69
2023/01/05 22:00:23;;;;;;;0.30;0.30;;;12.30;99.90;13.50;101584.00;;;;6188890;23;20153;-69
2023/01/05 22:02:50;;;;;;;0.30;0.30;;;12.40;99.90;13.10;101541.00;;;;6189216;23;20493;-69
2023/01/05 22:05:15;;;;;;;0.30;0.30;;;12.40;99.90;12.80;101583.00;;;;6189303;23;20240;-68
2023/01/05 22:07:41;;;;;;;0.47;0.47;;;12.30;99.90;13.40;101531.00;;;;6189611;23;20193;-68
2023/01/05 22:10:08;;;;;;;0.30;0.30;;;12.30;99.90;13.20;101582.00;;;;6215304;23;20214;-69
2023/01/05 22:12:34;;;;;;;0.30;0.30;;;12.30;99.90;13.30;101571.00;;;;6189223;23;20181;-69
2023/01/05 22:15:01;;;;;;;0.20;0.20;;;12.30;99.90;13.50;101584.00;;;;6189310;23;20142;-68
2023/01/05 22:17:26;;;;;;;0.30;0.30;;;12.30;99.90;13.30;101586.00;;;;6215762;23;20145;-68
2023/01/05 22:19:52;;;;;;;0.30;0.30;;;12.40;99.90;13.80;101568.00;;;;6215849;23;20178;-68
2023/01/05 22:33:41;;;;;;;0.20;0.20;;;11.70;99.90;12.70;101599.00;;;;5064222;28;20572;-68
2023/01/05 22:36:09;;;;;;;0.30;0.30;;;11.90;99.90;13.70;101549.00;;;;5053963;28;20232;-68
2023/01/05 22:38:39;;;;;;;0.73;0.50;;;12.20;99.90;13.10;101588.00;;;;5052994;28;20639;-68
2023/01/05 22:41:07;;;;;;;0.20;0.20;;;12.30;99.90;13.40;101567.00;;;;5054384;28;20188;-68
2023/01/05 22:43:36;;;;;;;0.40;0.40;;;12.30;99.90;13.60;101584.00;;;;5040817;28;20188;-68
2023/01/05 22:46:18;;;;;;;0.30;0.30;;;12.40;99.90;12.90;101587.00;;;;5048282;28;20180;-67
2023/01/05 22:48:45;;;;;;;1.20;1.10;;;12.40;99.90;12.90;101593.00;;;;5051981;28;20211;-67
2023/01/05 22:51:15;;;;;;;0.30;0.30;;;12.30;99.90;12.50;101579.00;;;;5051275;28;20641;-67
2023/01/05 22:53:42;;;;;;;0.30;0.30;;;12.10;99.90;13.60;101550.00;;;;5060858;28;20541;-67
2023/01/05 22:56:10;;;;;;;2.47;1.30;;;12.30;99.90;12.90;101597.00;;;;5055245;28;20185;-68
2023/01/05 22:58:38;;;;;;;0.20;0.20;;;12.30;99.90;12.10;101600.00;;;;5050870;28;20666;-67
